Latest Weather Observations for Hindmarsh Island

IDS60801

Issued at 10:01 pm CDT Thursday 23 February 2017 (issued every 30 minutes, with the page automatically refreshed every 10 minutes)

About weather observations | Map of weather stations | Latest weather observations for SA | Other Formats
Station Details ID: 023894 Name: HINDMARSH ISLAND AWS Lat: -35.52 Lon: 138.82 Height: 11.0 m
Data from the previous 72 hours. | See also: Recent months at Hindmarsh Island
Date/Time
CDT
Temp
°C
App
Temp
°C
Dew
Point
°C
Rel
Hum
%
Delta-T
°C
Wind Press
QNH
hPa
Press
MSL
hPa
Rain since
9am
mm
Dir  Spd
km/h
Gust
km/h
Spd
kts
Gust
kts
23/10:00pm 17.5 13.0 11.5 68 3.3 S 26 32 14 17 1024.2 1024.2 0.6
23/09:30pm 17.8 13.1 12.0 69 3.2 S 28 32 15 17 1023.9 1023.9 0.6
23/09:00pm 18.1 13.5 12.3 69 3.2 S 28 35 15 19 1023.5 1023.5 0.6
23/08:30pm 18.1 13.9 12.5 70 3.1 S 26 30 14 16 1023.0 1023.0 0.6
23/08:00pm 17.9 13.9 11.9 68 3.3 S 24 30 13 16 1022.8 1022.8 0.6
23/07:30pm 18.3 14.3 11.8 66 3.6 S 24 30 13 16 1022.3 1022.3 0.6
23/07:00pm 18.7 14.7 11.8 64 3.8 SSW 24 30 13 16 1022.0 1022.0 0.6
23/06:30pm 19.4 14.8 12.4 64 3.9 S 28 33 15 18 1021.6 1021.6 0.6
23/06:00pm 20.1 15.1 12.3 61 4.4 SSW 30 35 16 19 1021.5 1021.5 0.6
23/05:30pm 20.6 16.2 11.8 57 4.9 SSW 26 33 14 18 1021.4 1021.4 0.6
23/05:00pm 21.4 17.4 11.7 54 5.4 SSW 24 28 13 15 1021.1 1021.1 0.6
23/04:30pm 20.7 16.9 11.1 54 5.3 SSW 22 28 12 15 1021.2 1021.2 0.6
23/04:00pm 20.9 17.2 11.5 55 5.2 S 22 26 12 14 1021.1 1021.1 0.6
23/03:30pm 20.6 17.1 12.3 59 4.6 S 22 28 12 15 1021.1 1021.1 0.6
23/03:00pm 21.6 18.6 13.8 61 4.5 SSW 22 28 12 15 1021.1 1021.1 0.6
23/02:30pm 20.8 17.5 12.8 60 4.5 S 22 28 12 15 1021.3 1021.3 0.6
23/02:00pm 21.0 18.3 12.9 60 4.6 S 19 24 10 13 1021.1 1021.1 0.6
23/01:30pm 21.1 18.9 14.5 66 3.8 S 19 26 10 14 1021.1 1021.1 0.6
23/01:00pm 20.9 18.8 13.6 63 4.2 SSW 17 22 9 12 1021.2 1021.2 0.6
23/12:30pm 20.4 18.1 12.9 62 4.2 S 17 22 9 12 1021.1 1021.1 0.6
23/12:00pm 20.3 17.4 14.0 67 3.6 SSW 22 26 12 14 1021.3 1021.3 0.6
23/11:30am 19.2 15.8 13.8 71 3.1 SSW 24 28 13 15 1021.3 1021.3 0.6
23/11:00am 18.6 16.5 13.5 72 2.9 SW 17 20 9 11 1021.3 1021.3 0.6
23/10:30am 18.3 16.7 13.8 75 2.6 SSW 15 19 8 10 1021.0 1021.0 0.6
23/10:00am 16.5 14.4 13.6 83 1.6 SW 17 26 9 14 1020.7 1020.7 0.6
23/09:30am 16.5 14.6 14.3 87 1.3 W 17 20 9 11 1020.4 1020.4 0.4
23/09:00am 16.5 15.0 14.2 86 1.3 WNW 15 19 8 10 1019.8 1019.8 0.0
23/08:30am 16.4 13.8 13.9 85 1.4 WSW 20 30 11 16 1019.3 1019.3 0.0
23/08:00am 16.5 13.8 13.6 83 1.6 WSW 20 30 11 16 1018.9 1018.9 0.0
23/07:30am 16.4 14.3 13.5 83 1.6 WSW 17 22 9 12 1018.2 1018.2 0.0
23/07:00am 16.8 13.5 12.9 78 2.2 W 22 32 12 17 1017.7 1017.7 0.0
23/06:30am 17.3 13.6 12.8 75 2.5 WSW 24 30 13 16 1017.3 1017.3 0.0
23/06:00am 17.0 13.7 12.7 76 2.4 WSW 22 32 12 17 1016.8 1016.8 0.0
23/05:30am 17.2 13.5 12.7 75 2.5 WSW 24 35 13 19 1016.5 1016.5 0.0
23/05:00am 17.4 12.9 12.7 74 2.6 WSW 28 39 15 21 1016.1 1016.1 0.0
23/04:30am 17.6 13.8 12.5 72 2.8 WSW 24 35 13 19 1016.3 1016.3 0.0
23/04:00am 17.4 14.0 12.5 73 2.7 WSW 22 30 12 16 1016.2 1016.2 0.0
23/03:30am 17.6 15.2 12.7 73 2.7 WSW 17 24 9 13 1016.1 1016.1 0.0
23/03:00am 17.8 15.0 12.7 72 2.8 WSW 19 28 10 15 1016.0 1016.0 0.0
23/02:30am 17.7 16.0 12.4 71 2.9 WSW 13 19 7 10 1015.9 1015.9 0.0
23/02:00am 18.1 14.7 12.5 70 3.1 WSW 22 30 12 16 1015.7 1015.7 0.0
23/01:30am 18.5 13.6 12.7 69 3.2 WSW 30 43 16 23 1015.3 1015.3 0.0
23/01:00am 18.6 13.5 13.0 70 3.2 WSW 32 43 17 23 1015.1 1015.1 0.0
23/12:30am 19.0 13.9 13.2 69 3.3 W 32 44 17 24 1015.0 1014.9 0.0
23/12:00am 18.9 13.8 13.1 69 3.3 W 32 41 17 22 1014.7 1014.6 0.0
 
Date/Time
CDT
Temp
°C
App
Temp
°C
Dew
Point
°C
Rel
Hum
%
Delta-T
°C
Wind Press
QNH
hPa
Press
MSL
hPa
Rain since
9am
mm
Dir  Spd
km/h
Gust
km/h
Spd
kts
Gust
kts
22/11:30pm 19.1 14.1 13.3 69 3.3 W 32 48 17 26 1014.7 1014.6 0.0
22/11:00pm 19.1 15.0 12.8 67 3.5 W 26 35 14 19 1014.9 1014.8 0.0
22/10:30pm 19.6 13.5 13.1 66 3.7 W 37 50 20 27 1014.3 1014.2 0.0
22/10:00pm 19.8 14.9 12.6 63 4.0 W 30 41 16 22 1014.3 1014.2 0.0
22/09:30pm 20.0 14.9 12.0 60 4.5 W 30 43 16 23 1013.9 1013.8 0.0
22/09:00pm 20.3 15.9 12.8 62 4.2 W 28 41 15 22 1013.8 1013.7 0.0
22/08:30pm 20.6 15.6 12.1 58 4.8 W 30 41 16 22 1013.1 1013.0 0.0
22/08:00pm 21.2 15.5 11.2 53 5.5 WNW 32 43 17 23 1012.8 1012.7 0.0
22/07:37pm 21.7 16.1 11.4 52 5.7 W 32 52 17 28 1012.4 1012.3 0.0
22/07:30pm 22.0 16.1 10.5 48 6.3 WNW 32 46 17 25 1012.3 1012.2 0.0
22/07:02pm 22.7 17.2 10.5 46 6.7 WNW 30 48 16 26 1011.8 1011.7 0.0
22/07:00pm 22.8 17.0 10.9 47 6.6 WNW 32 48 17 26 1011.9 1011.8 0.0
22/06:30pm 23.2 17.0 9.9 43 7.3 WNW 33 43 18 23 1011.4 1011.3 0.0
22/06:02pm 23.7 17.1 10.0 42 7.5 W 35 54 19 29 1011.3 1011.2 0.0
22/06:00pm 23.7 16.7 10.0 42 7.5 W 37 54 20 29 1011.3 1011.2 0.0
22/05:51pm 24.1 17.5 8.5 37 8.3 WNW 33 52 18 28 1011.2 1011.1 0.0
22/05:30pm 24.1 18.8 10.0 41 7.7 W 28 41 15 22 1011.2 1011.1 0.0
22/05:00pm 23.0 16.7 9.8 43 7.2 W 33 54 18 29 1011.1 1011.0 0.0
22/04:51pm 24.4 18.7 9.9 40 8.0 WNW 30 54 16 29 1010.9 1010.8 0.0
22/04:30pm 23.5 16.5 9.9 42 7.4 WNW 37 50 20 27 1010.7 1010.6 0.0
22/04:03pm 23.8 17.6 9.4 40 7.8 WNW 32 50 17 27 1010.4 1010.3 0.0
22/04:00pm 23.6 17.5 9.9 42 7.5 WNW 32 46 17 25 1010.4 1010.3 0.0
22/03:35pm 23.8 17.1 8.2 37 8.3 WNW 33 52 18 28 1010.2 1010.1 0.0
22/03:30pm 24.1 17.5 8.5 37 8.3 WNW 33 50 18 27 1010.3 1010.2 0.0
22/03:00pm 25.0 18.6 8.5 35 8.9 WNW 32 46 17 25 1009.8 1009.7 0.0
22/02:30pm 25.7 19.8 9.1 35 9.1 WNW 30 44 16 24 1009.6 1009.5 0.0
22/02:26pm 25.9 19.8 9.7 36 8.9 WNW 32 50 17 27 1009.8 1009.7 0.0
22/02:00pm 25.2 17.9 8.7 35 8.9 WNW 37 50 20 27 1009.6 1009.5 0.0
22/01:47pm 25.3 19.0 11.1 41 8.0 WNW 35 56 19 30 1009.5 1009.4 0.0
22/01:30pm 25.6 17.5 8.6 34 9.2 WNW 41 54 22 29 1009.1 1009.0 0.0
22/01:26pm 25.8 17.5 7.9 32 9.6 WNW 41 57 22 31 1009.0 1008.9 0.0
22/01:00pm 28.5 22.1 7.1 26 11.4 NW 30 50 16 27 1008.2 1008.1 0.0
22/12:37pm 27.1 20.6 6.5 27 10.8 WNW 30 50 16 27 1008.7 1008.6 0.0
22/12:30pm 26.6 19.8 7.1 29 10.3 WNW 32 46 17 25 1008.9 1008.8 0.0
22/12:00pm 25.9 20.0 10.5 38 8.6 WNW 32 44 17 24 1009.2 1009.1 0.0
22/11:31am 24.6 17.0 11.9 45 7.2 W 43 61 23 33 1009.3 1009.2 0.0
22/11:30am 24.5 16.9 11.8 45 7.2 W 43 59 23 32 1009.3 1009.2 0.0
22/11:26am 24.4 17.2 12.0 46 7.1 W 41 61 22 33 1009.2 1009.1 0.0
22/11:21am 24.6 17.4 13.2 49 6.6 W 43 67 23 36 1009.4 1009.3 0.0
22/11:05am 24.9 15.1 12.8 47 7.0 WNW 56 76 30 41 1008.4 1008.3 0.0
22/11:00am 27.0 16.4 9.8 34 9.5 NW 56 70 30 38 1008.0 1007.9 0.0
22/10:30am 28.7 15.7 3.5 20 12.7 NW 61 87 33 47 1007.1 1007.0 0.0
22/10:00am 30.3 19.7 0.8 15 14.3 NNW 46 85 25 46 1006.8 1006.7 0.0
22/09:57am 30.5 20.5 1.0 15 14.4 NNW 43 69 23 37 1006.9 1006.8 0.0
22/09:33am 30.3 22.5 1.7 16 14.1 NNW 32 50 17 27 1007.3 1007.2 0.0
22/09:30am 30.0 23.2 3.1 18 13.6 N 28 44 15 24 1007.4 1007.3 0.0
22/09:14am 27.7 21.1 4.1 22 11.9 NNE 28 50 15 27 1007.3 1007.2 0.0
22/09:00am 26.2 19.8 5.2 26 10.7 NNE 28 35 15 19 1007.4 1007.3 0.0
22/08:30am 23.2 16.3 4.7 30 9.2 NNE 30 39 16 21 1007.2 1007.1 0.0
22/08:00am 23.1 16.0 3.6 28 9.5 NNE 30 41 16 22 1007.1 1007.0 0.0
22/07:30am 22.0 15.2 3.2 29 9.0 NE 28 35 15 19 1007.0 1006.9 0.0
22/07:00am 21.0 14.4 1.8 28 8.9 NE 26 33 14 18 1007.0 1006.9 0.0
22/06:30am 20.3 15.1 3.5 33 8.0 NE 20 28 11 15 1007.2 1007.1 0.0
22/06:00am 19.6 14.4 3.7 35 7.6 NE 20 28 11 15 1007.2 1007.1 0.0
22/05:30am 19.7 14.0 2.6 32 8.0 NE 22 30 12 16 1007.1 1007.0 0.0
22/05:00am 19.4 14.2 3.6 35 7.5 NE 20 26 11 14 1007.5 1007.4 0.0
22/04:30am 20.7 15.2 3.9 33 8.1 NNE 22 30 12 16 1007.9 1007.8 0.0
22/04:00am 20.9 15.0 4.0 33 8.1 NNE 24 33 13 18 1008.0 1007.9 0.0
22/03:30am 20.6 14.8 4.2 34 7.9 NNE 24 33 13 18 1008.5 1008.4 0.0
22/03:00am 19.9 14.6 6.6 42 6.7 NNE 24 32 13 17 1008.8 1008.7 0.0
22/02:30am 20.0 14.4 5.3 38 7.2 NNE 24 30 13 16 1009.3 1009.2 0.0
22/02:00am 19.6 14.9 6.0 41 6.7 NNE 20 24 11 13 1009.8 1009.7 0.0
22/01:30am 19.5 15.0 6.3 42 6.6 NNE 19 24 10 13 1010.2 1010.1 0.0
22/01:00am 19.4 14.8 6.5 43 6.5 NNE 20 26 11 14 1010.5 1010.4 0.0
22/12:30am 19.7 15.4 6.8 43 6.5 NNE 19 24 10 13 1011.1 1011.0 0.0
22/12:00am 19.2 15.4 7.6 47 5.9 NNE 17 20 9 11 1011.2 1011.1 0.0
 
Date/Time
CDT
Temp
°C
App
Temp
°C
Dew
Point
°C
Rel
Hum
%
Delta-T
°C
Wind Press
QNH
hPa
Press
MSL
hPa
Rain since
9am
mm
Dir  Spd
km/h
Gust
km/h
Spd
kts
Gust
kts
21/11:30pm 18.6 15.6 9.4 55 4.8 NNE 15 22 8 12 1011.9 1011.8 0.0
21/11:00pm 19.4 16.6 8.7 50 5.6 NNE 13 15 7 8 1012.3 1012.2 0.0
21/10:30pm 20.3 18.1 9.2 49 5.9 N 11 13 6 7 1012.8 1012.7 0.0
21/10:00pm 20.8 19.9 12.5 59 4.7 N 9 11 5 6 1013.1 1013.0 0.0
21/09:30pm 21.2 20.0 12.9 59 4.7 N 11 11 6 6 1012.8 1012.7 0.0
21/09:00pm 22.0 20.9 13.1 57 5.1 N 11 11 6 6 1012.7 1012.6 0.0
21/08:30pm 22.6 21.9 14.2 59 4.9 N 11 15 6 8 1012.6 1012.5 0.0
21/08:00pm 24.6 20.3 9.3 38 8.3 NNE 22 32 12 17 1012.3 1012.2 0.0
21/07:30pm 26.3 21.8 6.9 29 10.2 ENE 20 26 11 14 1011.9 1011.8 0.0
21/07:00pm 27.5 21.6 5.7 25 11.3 E 26 33 14 18 1011.6 1011.5 0.0
21/06:30pm 28.2 22.7 7.4 27 11.2 E 26 35 14 19 1011.9 1011.8 0.0
21/06:00pm 29.0 23.0 5.1 22 12.4 ENE 26 33 14 18 1012.2 1012.1 0.0
21/05:30pm 29.1 23.2 5.9 23 12.2 ENE 26 32 14 17 1012.5 1012.4 0.0
21/05:00pm 29.1 23.2 5.9 23 12.2 ENE 26 32 14 17 1012.7 1012.6 0.0
21/04:30pm 29.4 23.9 6.1 23 12.3 ENE 24 33 13 18 1013.1 1013.0 0.0
21/04:00pm 28.7 22.0 5.5 23 12.1 E 30 41 16 22 1013.5 1013.4 0.0
21/03:30pm 28.4 21.8 5.9 24 11.8 E 30 39 16 21 1014.2 1014.1 0.0
21/03:00pm 28.9 23.5 6.3 24 11.9 ENE 24 35 13 19 1014.9 1014.8 0.0
21/02:30pm 28.2 22.8 6.3 25 11.5 E 24 32 13 17 1015.4 1015.4 0.0
21/02:00pm 28.2 23.0 7.4 27 11.2 E 24 30 13 16 1015.6 1015.6 0.0
21/01:30pm 27.5 23.0 6.8 27 10.9 ENE 20 30 11 16 1016.2 1016.2 0.0
21/01:00pm 26.4 22.0 6.4 28 10.4 NE 19 28 10 15 1016.6 1016.6 0.0
21/12:30pm 25.4 21.1 7.1 31 9.6 NE 19 26 10 14 1017.2 1017.2 0.0
21/12:00pm 24.4 19.9 6.2 31 9.3 NE 19 26 10 14 1017.9 1017.9 0.0
21/11:30am 22.9 18.3 6.6 35 8.3 NE 20 28 11 15 1018.6 1018.6 0.0
21/11:00am 21.5 16.1 6.2 37 7.7 NNE 24 32 13 17 1018.6 1018.6 0.0
21/10:30am 20.1 15.3 7.5 44 6.4 NNE 22 32 12 17 1018.9 1018.9 0.0
21/10:00am 18.3 13.2 7.7 50 5.4 NNE 24 32 13 17 1019.1 1019.1 0.0
21/09:30am 16.5 11.9 8.2 58 4.2 NNE 22 30 12 16 1019.2 1019.2 0.0
21/09:00am 15.1 10.8 7.9 62 3.6 NNE 20 26 11 14 1019.6 1019.6 0.0
21/08:30am 14.0 10.1 7.3 64 3.3 NNE 17 26 9 14 1019.6 1019.6 0.0
21/08:00am 13.1 9.8 8.2 72 2.4 NNE 15 20 8 11 1019.3 1019.3 0.0
21/07:30am 11.5 8.5 7.8 78 1.8 NNE 13 17 7 9 1019.1 1019.1 0.0
21/07:00am 10.7 7.7 7.9 83 1.4 N 13 15 7 8 1018.8 1018.8 0.0
21/06:30am 10.8 8.6 8.0 83 1.4 N 9 11 5 6 1018.9 1018.9 0.0
21/06:00am 11.0 8.9 8.2 83 1.4 N 9 11 5 6 1018.7 1018.7 0.0
21/05:30am 11.1 8.2 8.0 81 1.5 N 13 15 7 8 1018.5 1018.5 0.0
21/05:00am 11.5 8.6 8.0 79 1.7 N 13 17 7 9 1018.6 1018.6 0.0
21/04:30am 11.4 8.1 8.1 80 1.6 NNE 15 17 8 9 1018.6 1018.6 0.0
21/04:00am 11.3 8.4 8.0 80 1.6 N 13 15 7 8 1018.7 1018.7 0.0
21/03:30am 11.7 8.9 8.4 80 1.6 N 13 15 7 8 1018.6 1018.6 0.0
21/03:00am 11.6 8.4 8.3 80 1.6 N 15 17 8 9 1018.6 1018.6 0.0
21/02:30am 12.0 9.3 9.0 82 1.5 N 13 15 7 8 1018.8 1018.8 0.0
21/02:00am 12.6 10.7 8.9 78 1.9 NNE 9 11 5 6 1019.1 1019.1 0.0
21/01:30am 12.9 10.6 9.0 77 2.0 NE 11 13 6 7 1019.1 1019.1 0.0
21/01:00am 12.6 10.6 8.7 77 1.9 N 9 11 5 6 1019.3 1019.3 0.0
21/12:30am 13.1 11.0 8.4 73 2.3 N 9 11 5 6 1019.6 1019.6 0.0
21/12:00am 13.7 11.8 7.5 66 3.0 E 7 9 4 5 1019.9 1019.9 0.0
 
Date/Time
CDT
Temp
°C
App
Temp
°C
Dew
Point
°C
Rel
Hum
%
Delta-T
°C
Wind Press
QNH
hPa
Press
MSL
hPa
Rain since
9am
mm
Dir  Spd
km/h
Gust
km/h
Spd
kts
Gust
kts
20/11:30pm 14.0 11.7 7.5 65 3.2 ESE 9 13 5 7 1019.9 1019.9 0.0
20/11:00pm 15.3 12.6 8.8 65 3.3 SSE 13 17 7 9 1019.9 1019.9 0.0
20/10:30pm 15.7 12.2 8.9 64 3.5 SSE 17 22 9 12 1019.9 1019.9 0.0

Other Formats:

Comma delimited format used in spreadsheet applications
http://www.bom.gov.au/fwo/IDS60801/IDS60801.94677.axf

JavaScript Object Notation format (JSON) in row-major order
http://www.bom.gov.au/fwo/IDS60801/IDS60801.94677.json